Time;durP1;ratioP1;P1;durP2;ratioP2;P2;SDS_P1;SDS_P2;PMS_P1;PMS_P2;Temp;Humidity;BMP_temperature;BMP_pressure;BME280_temperature;BME280_humidity;BME280_pressure;Samples;Min_cycle;Max_cycle;Signal;HPM_P1;HPM_P2
2024/03/24 00:02:02;;;;;;;2.50;1.03;;;12.10;99.90;;;;;;4992157;28;20768;-47
2024/03/24 00:04:29;;;;;;;3.00;0.80;;;12.10;99.90;;;;;;4996217;28;20968;-47
2024/03/24 00:06:55;;;;;;;8.87;1.10;;;12.10;99.90;;;;;;5001614;28;20472;-49
2024/03/24 00:09:22;;;;;;;1.20;0.73;;;12.00;99.90;;;;;;4990736;28;20528;-50
2024/03/24 00:11:48;;;;;;;1.70;1.07;;;12.00;99.90;;;;;;4992607;28;20541;-48
2024/03/24 00:14:15;;;;;;;2.50;1.03;;;12.00;99.90;;;;;;4994824;28;20444;-47
2024/03/24 00:16:42;;;;;;;2.00;1.20;;;12.00;99.90;;;;;;5005682;28;20462;-47
2024/03/24 00:19:10;;;;;;;2.03;1.00;;;12.00;99.90;;;;;;4991276;28;20552;-47
2024/03/24 00:21:36;;;;;;;1.70;0.93;;;12.00;99.90;;;;;;4998483;28;20434;-47
2024/03/24 00:24:04;;;;;;;2.00;0.80;;;12.00;99.90;;;;;;4992164;28;20561;-48
2024/03/24 00:26:30;;;;;;;1.50;1.23;;;12.00;99.90;;;;;;4996325;28;20515;-46
2024/03/24 00:28:58;;;;;;;1.30;0.90;;;12.00;99.90;;;;;;5004190;28;20947;-47
2024/03/24 00:31:24;;;;;;;1.60;1.20;;;12.00;99.90;;;;;;4975506;28;20474;-47
2024/03/24 00:33:51;;;;;;;1.60;1.17;;;12.00;99.90;;;;;;4991651;28;20580;-50
2024/03/24 00:36:20;;;;;;;1.90;1.10;;;12.00;99.90;;;;;;5002864;28;20446;-48
2024/03/24 00:38:48;;;;;;;3.00;0.93;;;12.00;99.90;;;;;;4995678;28;20458;-48
2024/03/24 00:41:15;;;;;;;2.00;1.10;;;12.00;99.90;;;;;;5001579;28;20794;-47
2024/03/24 00:43:41;;;;;;;1.67;1.07;;;12.00;99.90;;;;;;4998232;28;20827;-47
2024/03/24 00:46:08;;;;;;;2.20;1.20;;;12.00;99.90;;;;;;4991494;28;20462;-47
2024/03/24 00:48:34;;;;;;;2.60;1.07;;;12.00;99.90;;;;;;4999345;28;20484;-48
2024/03/24 00:51:01;;;;;;;1.40;1.00;;;11.90;99.90;;;;;;4991469;28;20879;-47
2024/03/24 00:53:29;;;;;;;1.70;1.40;;;11.90;99.90;;;;;;4998385;28;20495;-48
2024/03/24 00:55:56;;;;;;;1.67;1.10;;;11.90;99.90;;;;;;4991392;28;20469;-47
2024/03/24 00:58:22;;;;;;;3.00;1.10;;;11.90;99.90;;;;;;4991158;28;20827;-48
2024/03/24 01:00:49;;;;;;;1.33;0.97;;;11.90;99.90;;;;;;4990536;28;20437;-48
2024/03/24 01:03:15;;;;;;;1.80;1.07;;;11.90;99.90;;;;;;5000297;28;20946;-47
2024/03/24 01:05:42;;;;;;;2.90;1.10;;;11.90;99.90;;;;;;4990898;28;20554;-47
2024/03/24 01:08:08;;;;;;;6.40;1.00;;;11.90;99.90;;;;;;4993128;28;20466;-47
2024/03/24 01:10:38;;;;;;;2.33;1.40;;;11.90;99.90;;;;;;4982730;28;20442;-48
2024/03/24 01:13:05;;;;;;;2.80;1.00;;;11.90;99.90;;;;;;4997973;28;20536;-47
2024/03/24 01:15:33;;;;;;;1.53;0.97;;;11.90;99.90;;;;;;5004078;28;20504;-47
2024/03/24 01:17:59;;;;;;;3.40;1.30;;;11.90;99.90;;;;;;4997160;28;20536;-47
2024/03/24 01:20:26;;;;;;;1.40;0.90;;;11.90;99.90;;;;;;4988697;28;20440;-48
2024/03/24 01:22:52;;;;;;;2.30;1.20;;;11.90;99.90;;;;;;4999425;28;20520;-47
2024/03/24 01:25:19;;;;;;;1.50;0.93;;;11.90;99.90;;;;;;4990482;28;20931;-47
2024/03/24 01:27:47;;;;;;;2.40;1.97;;;11.90;99.90;;;;;;4992328;28;20842;-47
2024/03/24 01:30:15;;;;;;;1.93;1.23;;;11.90;99.90;;;;;;4993788;28;20438;-48
2024/03/24 01:32:41;;;;;;;1.50;0.90;;;11.90;99.90;;;;;;5000476;28;20505;-47
2024/03/24 01:35:09;;;;;;;1.53;0.90;;;11.90;99.90;;;;;;4990390;28;20439;-48
2024/03/24 01:37:36;;;;;;;2.57;1.20;;;11.90;99.90;;;;;;4998723;28;20476;-47
2024/03/24 01:40:04;;;;;;;1.60;0.77;;;11.90;99.90;;;;;;4995234;28;20970;-47
2024/03/24 01:42:30;;;;;;;1.90;0.90;;;11.80;99.90;;;;;;4996102;28;20452;-47
2024/03/24 01:44:59;;;;;;;2.57;1.07;;;11.80;99.90;;;;;;4991654;28;20973;-47
2024/03/24 01:47:25;;;;;;;2.07;1.20;;;11.80;99.90;;;;;;4989796;28;20520;-47
2024/03/24 01:49:52;;;;;;;1.40;1.20;;;11.80;99.90;;;;;;5005460;28;20540;-47
2024/03/24 01:52:19;;;;;;;2.20;1.00;;;11.80;99.90;;;;;;4993548;28;20434;-47
2024/03/24 01:54:46;;;;;;;1.53;1.20;;;11.80;99.90;;;;;;4989688;28;20434;-47
2024/03/24 01:57:12;;;;;;;2.90;1.40;;;11.80;99.90;;;;;;4974713;28;20473;-47
2024/03/24 01:59:39;;;;;;;1.40;0.80;;;11.80;99.90;;;;;;4997478;28;20507;-47
2024/03/24 02:02:06;;;;;;;1.90;0.97;;;11.80;99.90;;;;;;4989835;28;20945;-47
2024/03/24 02:04:33;;;;;;;2.50;0.97;;;11.80;99.90;;;;;;4998063;28;20730;-47
2024/03/24 02:07:00;;;;;;;2.80;1.43;;;11.70;99.90;;;;;;4990647;28;20611;-47
2024/03/24 02:09:27;;;;;;;1.83;0.90;;;11.80;99.90;;;;;;4989392;28;20452;-47
2024/03/24 02:11:54;;;;;;;1.63;1.33;;;11.70;99.90;;;;;;4993792;28;21029;-47
2024/03/24 02:14:21;;;;;;;2.10;1.10;;;11.80;99.90;;;;;;4993286;28;20418;-47
2024/03/24 02:16:50;;;;;;;1.63;1.13;;;11.80;99.90;;;;;;4995780;28;20455;-47
2024/03/24 02:19:18;;;;;;;2.20;0.97;;;11.80;99.90;;;;;;5002138;28;20974;-47
2024/03/24 02:21:45;;;;;;;2.40;1.10;;;11.80;99.90;;;;;;4999202;28;20526;-47
2024/03/24 02:24:13;;;;;;;1.20;0.77;;;11.70;99.90;;;;;;4989625;28;20434;-47
2024/03/24 02:26:39;;;;;;;2.20;1.17;;;11.70;99.90;;;;;;4994944;28;20474;-47
2024/03/24 02:29:07;;;;;;;2.57;1.13;;;11.70;99.90;;;;;;4989423;28;20545;-47
2024/03/24 02:31:33;;;;;;;1.80;1.33;;;11.70;99.90;;;;;;4998253;28;20442;-47
2024/03/24 02:34:00;;;;;;;1.90;1.20;;;11.70;99.90;;;;;;4993797;28;20610;-47
2024/03/24 02:36:27;;;;;;;1.80;1.10;;;11.70;99.90;;;;;;4999154;28;20464;-47
2024/03/24 02:38:54;;;;;;;1.47;1.00;;;11.70;99.90;;;;;;4995714;28;20807;-47
2024/03/24 02:41:24;;;;;;;2.37;1.40;;;11.70;99.90;;;;;;4996656;28;20426;-47
2024/03/24 02:43:51;;;;;;;3.27;0.80;;;11.70;99.90;;;;;;5003408;28;20436;-47
2024/03/24 02:46:17;;;;;;;3.77;1.27;;;11.70;99.90;;;;;;4993793;28;20544;-47
2024/03/24 02:48:44;;;;;;;2.10;1.10;;;11.70;99.90;;;;;;5001588;28;20523;-47
2024/03/24 02:51:10;;;;;;;1.37;0.87;;;11.70;99.90;;;;;;4993428;28;20432;-47
2024/03/24 02:53:39;;;;;;;1.33;0.90;;;11.70;99.90;;;;;;4996910;28;20509;-47
2024/03/24 02:56:06;;;;;;;1.30;0.87;;;11.70;99.90;;;;;;5006857;28;20539;-48
2024/03/24 02:58:34;;;;;;;1.73;1.07;;;11.60;99.90;;;;;;4992835;28;20450;-47
2024/03/24 03:01:01;;;;;;;2.70;1.27;;;11.70;99.90;;;;;;4995066;28;20516;-47
2024/03/24 03:03:27;;;;;;;2.70;1.00;;;11.60;99.90;;;;;;4992896;28;20867;-47
2024/03/24 03:05:54;;;;;;;1.57;1.03;;;11.70;99.90;;;;;;4993511;28;20449;-47
2024/03/24 03:08:20;;;;;;;1.90;1.20;;;11.60;99.90;;;;;;4992533;28;20743;-47
2024/03/24 03:10:48;;;;;;;1.90;1.10;;;11.60;99.90;;;;;;5000824;28;20502;-47
2024/03/24 03:13:14;;;;;;;3.13;1.13;;;11.60;99.90;;;;;;5002114;28;20450;-47
2024/03/24 03:15:43;;;;;;;2.27;1.10;;;11.60;99.90;;;;;;4990684;28;20524;-48
2024/03/24 03:18:09;;;;;;;1.70;1.10;;;11.60;99.90;;;;;;4996357;28;20562;-47
2024/03/24 03:20:36;;;;;;;1.77;0.90;;;11.60;99.90;;;;;;4993520;28;20797;-47
2024/03/24 03:23:03;;;;;;;1.50;0.87;;;11.60;99.90;;;;;;4993056;28;20520;-47
2024/03/24 03:25:30;;;;;;;1.50;0.80;;;11.60;99.90;;;;;;5000628;28;20531;-47
2024/03/24 03:27:56;;;;;;;2.33;1.13;;;11.60;99.90;;;;;;5001645;28;20460;-48
2024/03/24 03:30:23;;;;;;;1.50;1.10;;;11.60;99.90;;;;;;4991865;28;20537;-47
2024/03/24 03:32:51;;;;;;;1.87;0.77;;;11.60;99.90;;;;;;4992394;28;20429;-47
2024/03/24 03:35:18;;;;;;;1.30;0.67;;;11.60;99.90;;;;;;4991783;28;20926;-47
2024/03/24 03:37:44;;;;;;;1.10;0.63;;;11.60;99.90;;;;;;4992666;28;20433;-47
2024/03/24 03:40:12;;;;;;;1.83;1.20;;;11.60;99.90;;;;;;5005443;28;20444;-47
2024/03/24 03:42:39;;;;;;;2.07;0.90;;;11.60;99.90;;;;;;5001071;28;20970;-48
2024/03/24 03:45:07;;;;;;;1.60;0.80;;;11.60;99.90;;;;;;4992353;28;20430;-48
2024/03/24 03:47:33;;;;;;;2.13;1.00;;;11.50;99.90;;;;;;4992696;28;20901;-49
2024/03/24 03:50:03;;;;;;;1.70;1.20;;;11.60;99.90;;;;;;4992319;28;20471;-47
2024/03/24 03:52:29;;;;;;;1.77;0.97;;;11.50;99.90;;;;;;5001186;28;20516;-49
2024/03/24 03:54:57;;;;;;;2.40;0.90;;;11.50;99.90;;;;;;5001565;28;20425;-46
2024/03/24 03:57:24;;;;;;;1.97;0.70;;;11.60;99.90;;;;;;5001089;28;20635;-47
2024/03/24 03:59:52;;;;;;;1.17;0.90;;;11.50;99.90;;;;;;4992074;28;20540;-47
2024/03/24 04:02:18;;;;;;;2.13;1.00;;;11.50;99.90;;;;;;5003828;28;20541;-47
2024/03/24 04:04:45;;;;;;;2.47;1.10;;;11.50;99.90;;;;;;5009086;28;20459;-48
2024/03/24 04:07:12;;;;;;;1.43;0.83;;;11.50;99.90;;;;;;4997245;28;20493;-49
2024/03/24 04:09:39;;;;;;;1.67;0.93;;;11.50;99.90;;;;;;5003267;28;20588;-47
2024/03/24 04:12:06;;;;;;;2.60;1.20;;;11.50;99.90;;;;;;5001704;28;20440;-48
2024/03/24 04:14:33;;;;;;;1.30;0.80;;;11.50;99.90;;;;;;5015690;28;20432;-48
2024/03/24 04:16:59;;;;;;;1.80;0.90;;;11.50;99.90;;;;;;4996583;28;20543;-47
2024/03/24 04:19:26;;;;;;;2.10;1.10;;;11.50;99.90;;;;;;4994194;28;20577;-48
2024/03/24 04:21:53;;;;;;;1.40;0.90;;;11.50;99.90;;;;;;4993532;28;20806;-47
2024/03/24 04:24:22;;;;;;;1.30;0.67;;;11.40;99.90;;;;;;4992133;28;21009;-48
2024/03/24 04:26:48;;;;;;;1.60;0.97;;;11.50;99.90;;;;;;4998338;28;20465;-48
2024/03/24 04:29:15;;;;;;;1.10;0.70;;;11.50;99.90;;;;;;5005833;28;20547;-47
2024/03/24 04:31:42;;;;;;;1.60;1.00;;;11.50;99.90;;;;;;4992658;28;20504;-49
2024/03/24 04:34:09;;;;;;;2.80;1.10;;;11.50;99.90;;;;;;5001232;28;20434;-47
2024/03/24 04:36:35;;;;;;;1.30;0.73;;;11.50;99.90;;;;;;5000332;28;20457;-49
2024/03/24 04:39:03;;;;;;;2.00;1.13;;;11.40;99.90;;;;;;4998337;28;20605;-48
2024/03/24 04:41:31;;;;;;;1.97;1.17;;;11.50;99.90;;;;;;4993035;28;21031;-48
2024/03/24 04:43:59;;;;;;;2.07;1.17;;;11.40;99.90;;;;;;5005765;28;20438;-48
2024/03/24 04:46:26;;;;;;;1.77;1.03;;;11.40;99.90;;;;;;4991473;28;20477;-47
2024/03/24 04:48:52;;;;;;;2.00;1.17;;;11.40;99.90;;;;;;4991525;28;21017;-46
2024/03/24 04:51:19;;;;;;;2.10;1.03;;;11.40;99.90;;;;;;4996284;28;20435;-47
2024/03/24 04:53:46;;;;;;;1.20;0.70;;;11.40;99.90;;;;;;4995901;28;20437;-48
2024/03/24 04:56:17;;;;;;;1.40;1.07;;;11.40;99.90;;;;;;4990628;28;20428;-47
2024/03/24 04:58:44;;;;;;;1.90;1.03;;;11.40;99.90;;;;;;4995295;28;20464;-47
2024/03/24 05:01:12;;;;;;;2.67;1.10;;;11.40;99.90;;;;;;5003680;28;20449;-47
2024/03/24 05:03:38;;;;;;;1.53;1.07;;;11.40;99.90;;;;;;4993049;28;20439;-48
2024/03/24 05:06:05;;;;;;;1.80;1.10;;;11.40;99.90;;;;;;4991727;28;20434;-48
2024/03/24 05:08:33;;;;;;;1.50;0.80;;;11.40;99.90;;;;;;4999318;28;20842;-47
2024/03/24 05:11:01;;;;;;;1.73;1.13;;;11.40;99.90;;;;;;4990697;28;20438;-48
2024/03/24 05:13:31;;;;;;;1.70;1.00;;;11.30;99.90;;;;;;5008650;28;20443;-49
2024/03/24 05:16:00;;;;;;;2.10;1.07;;;11.40;99.90;;;;;;4994974;28;20539;-49
2024/03/24 05:18:26;;;;;;;1.70;0.80;;;11.40;99.90;;;;;;5010049;28;20948;-48
2024/03/24 05:20:54;;;;;;;2.60;1.33;;;11.30;99.90;;;;;;5007609;28;20430;-49
2024/03/24 05:23:20;;;;;;;3.07;1.17;;;11.30;99.90;;;;;;5003015;28;20946;-49
2024/03/24 05:25:51;;;;;;;1.63;1.13;;;11.30;99.90;;;;;;4997334;28;20440;-49
2024/03/24 05:28:17;;;;;;;1.67;0.93;;;11.30;99.90;;;;;;5001634;28;20477;-47
2024/03/24 05:30:45;;;;;;;2.20;1.03;;;11.30;99.90;;;;;;4998523;28;20434;-47
2024/03/24 05:33:12;;;;;;;1.30;0.90;;;11.30;99.90;;;;;;4990447;28;20520;-47
2024/03/24 05:35:39;;;;;;;1.97;1.03;;;11.30;99.90;;;;;;4992199;28;20811;-50
2024/03/24 05:38:05;;;;;;;1.70;1.00;;;11.30;99.90;;;;;;4994343;28;20459;-50
2024/03/24 05:40:32;;;;;;;1.90;1.00;;;11.30;99.90;;;;;;5001097;28;20524;-47
2024/03/24 05:42:59;;;;;;;1.40;1.00;;;11.30;99.90;;;;;;4990581;28;20531;-49
2024/03/24 05:45:26;;;;;;;3.00;1.40;;;11.30;99.90;;;;;;4990983;28;20460;-50
2024/03/24 05:47:52;;;;;;;2.23;1.20;;;11.30;99.90;;;;;;5006605;28;20559;-48
2024/03/24 05:50:21;;;;;;;2.90;1.23;;;11.20;99.90;;;;;;4989886;28;20430;-48
2024/03/24 05:52:48;;;;;;;2.73;1.10;;;11.30;99.90;;;;;;4997135;28;20923;-49
2024/03/24 05:55:15;;;;;;;2.30;1.40;;;11.30;99.90;;;;;;4999101;28;20435;-49
2024/03/24 05:57:42;;;;;;;3.37;1.17;;;11.20;99.90;;;;;;4995876;28;20448;-48
2024/03/24 06:00:11;;;;;;;7.90;2.47;;;11.20;99.90;;;;;;4999379;28;20439;-48
2024/03/24 06:02:41;;;;;;;2.80;1.27;;;11.20;99.90;;;;;;4999268;28;20446;-48
2024/03/24 06:05:09;;;;;;;2.57;1.40;;;11.20;99.90;;;;;;5001706;28;20429;-48
2024/03/24 06:07:36;;;;;;;4.83;1.60;;;11.20;99.90;;;;;;4997472;28;20466;-48
2024/03/24 06:10:04;;;;;;;3.37;1.40;;;11.20;99.90;;;;;;5001603;28;20929;-48
2024/03/24 06:12:31;;;;;;;2.97;1.97;;;11.20;99.90;;;;;;5010878;28;20792;-48
2024/03/24 06:14:58;;;;;;;3.00;1.47;;;11.20;99.90;;;;;;5011415;28;20458;-48
2024/03/24 06:17:25;;;;;;;2.33;1.20;;;11.20;99.90;;;;;;5000260;28;20792;-48
2024/03/24 06:19:52;;;;;;;3.23;1.33;;;11.20;99.90;;;;;;5002695;28;20538;-48
2024/03/24 06:22:18;;;;;;;2.03;1.40;;;11.20;99.90;;;;;;5016157;28;20467;-48
2024/03/24 06:24:47;;;;;;;2.10;1.47;;;11.20;99.90;;;;;;5001926;28;20455;-48
2024/03/24 06:27:14;;;;;;;1.90;1.23;;;11.20;99.90;;;;;;5005748;28;20467;-47
2024/03/24 06:29:41;;;;;;;2.80;1.33;;;11.20;99.90;;;;;;5010394;28;20547;-48
2024/03/24 06:32:07;;;;;;;2.23;1.07;;;11.20;99.90;;;;;;5002516;28;20449;-48
2024/03/24 06:34:35;;;;;;;2.17;1.30;;;11.20;99.90;;;;;;5012917;28;20813;-48
2024/03/24 06:37:01;;;;;;;2.23;1.20;;;11.20;99.90;;;;;;5007779;28;20507;-48
2024/03/24 06:39:28;;;;;;;3.70;1.90;;;11.20;99.90;;;;;;5011451;28;20474;-48
2024/03/24 06:42:02;;;;;;;3.00;1.50;;;11.10;99.90;;;;;;5013057;28;20532;-48
2024/03/24 06:44:35;;;;;;;2.00;1.57;;;11.20;99.90;;;;;;5008200;28;20446;-48
2024/03/24 06:47:01;;;;;;;2.13;1.77;;;11.20;99.90;;;;;;5009561;28;20439;-48
2024/03/24 06:49:28;;;;;;;2.80;1.43;;;11.10;99.90;;;;;;4998590;28;20980;-48
2024/03/24 06:51:55;;;;;;;3.00;1.23;;;11.20;99.90;;;;;;5010041;28;20447;-48
2024/03/24 06:54:22;;;;;;;2.30;1.10;;;11.20;99.90;;;;;;5008273;28;20961;-48
2024/03/24 06:56:48;;;;;;;3.07;1.60;;;11.20;99.90;;;;;;4996194;28;20456;-48
2024/03/24 06:59:17;;;;;;;2.10;1.10;;;11.10;99.90;;;;;;4997967;28;20486;-47
2024/03/24 07:01:43;;;;;;;2.23;1.40;;;11.10;99.90;;;;;;5012225;28;20535;-48
2024/03/24 07:04:10;;;;;;;3.30;1.37;;;11.10;99.90;;;;;;5006418;28;20438;-48
2024/03/24 07:06:37;;;;;;;1.90;1.20;;;11.10;99.90;;;;;;5013642;28;20450;-48
2024/03/24 07:09:04;;;;;;;2.03;1.37;;;11.10;99.90;;;;;;5000578;28;20464;-48
2024/03/24 07:11:32;;;;;;;5.87;1.70;;;11.10;99.90;;;;;;5002758;28;20467;-47
2024/03/24 07:14:00;;;;;;;1.87;1.07;;;11.10;99.90;;;;;;5004366;28;20438;-48
2024/03/24 07:16:27;;;;;;;3.03;1.13;;;11.10;99.90;;;;;;5007513;28;20467;-48
2024/03/24 07:18:55;;;;;;;1.50;1.10;;;11.10;99.90;;;;;;5000430;28;20457;-48
2024/03/24 07:21:22;;;;;;;3.00;1.20;;;11.10;99.90;;;;;;4996162;28;20433;-48
2024/03/24 07:23:49;;;;;;;3.37;1.30;;;11.10;99.90;;;;;;5003576;28;20440;-49
2024/03/24 07:26:15;;;;;;;3.30;1.20;;;11.10;99.90;;;;;;4997754;28;20531;-48
2024/03/24 07:28:43;;;;;;;2.50;1.10;;;11.10;99.90;;;;;;5001226;28;20478;-49
2024/03/24 07:31:09;;;;;;;2.53;1.10;;;11.10;99.90;;;;;;5003726;28;20521;-48
2024/03/24 07:33:38;;;;;;;2.70;1.33;;;11.10;99.90;;;;;;5004402;28;20455;-48
2024/03/24 07:36:05;;;;;;;2.73;1.50;;;11.00;99.90;;;;;;5003896;28;20881;-47
2024/03/24 07:38:32;;;;;;;1.90;1.20;;;11.00;99.90;;;;;;4996800;28;20462;-47
2024/03/24 07:40:58;;;;;;;2.53;1.33;;;11.10;99.90;;;;;;5002015;28;20530;-47
2024/03/24 07:43:25;;;;;;;2.63;1.37;;;11.00;99.90;;;;;;5004859;28;20436;-47
2024/03/24 07:45:51;;;;;;;2.23;1.40;;;11.00;99.90;;;;;;5000538;28;20442;-47
2024/03/24 07:48:19;;;;;;;1.63;1.00;;;11.00;99.90;;;;;;5002261;28;20569;-47
2024/03/24 07:50:47;;;;;;;3.23;1.30;;;11.00;99.90;;;;;;5001672;28;20441;-47
2024/03/24 07:53:14;;;;;;;2.90;1.53;;;11.00;99.90;;;;;;5003320;28;20451;-47
2024/03/24 07:55:41;;;;;;;1.63;1.00;;;11.00;99.90;;;;;;4997327;28;20445;-48
2024/03/24 07:58:09;;;;;;;1.90;1.00;;;11.00;99.90;;;;;;4992253;28;20457;-48
2024/03/24 08:00:35;;;;;;;3.40;1.33;;;11.00;99.90;;;;;;4997403;28;20450;-47
2024/03/24 08:03:03;;;;;;;1.90;1.20;;;11.00;99.90;;;;;;5003338;28;20458;-48
2024/03/24 08:05:29;;;;;;;2.57;1.47;;;11.00;99.90;;;;;;4995313;28;20446;-47
2024/03/24 08:07:58;;;;;;;2.40;1.60;;;11.00;99.90;;;;;;4994943;28;20455;-47
2024/03/24 08:10:25;;;;;;;2.80;1.47;;;11.00;99.90;;;;;;5000234;28;20794;-46
2024/03/24 08:12:51;;;;;;;2.17;1.37;;;11.00;99.90;;;;;;5002819;28;20506;-47
2024/03/24 08:15:18;;;;;;;2.57;1.30;;;11.00;99.90;;;;;;4999777;28;20447;-47
2024/03/24 08:17:45;;;;;;;2.40;1.23;;;10.90;99.90;;;;;;5003349;28;20838;-47
2024/03/24 08:20:12;;;;;;;2.30;1.27;;;10.90;99.90;;;;;;5006106;28;20963;-47
2024/03/24 08:22:39;;;;;;;4.97;2.23;;;10.90;99.90;;;;;;4999567;28;20473;-47
2024/03/24 08:25:09;;;;;;;1.83;1.17;;;10.90;99.90;;;;;;5004135;28;20516;-46
2024/03/24 08:27:35;;;;;;;1.63;1.07;;;10.90;99.90;;;;;;4998464;28;20479;-47
2024/03/24 08:30:02;;;;;;;2.70;1.30;;;10.90;99.90;;;;;;4996736;28;20442;-47
2024/03/24 08:32:28;;;;;;;3.00;1.53;;;10.90;99.90;;;;;;4997440;28;20433;-47
2024/03/24 08:34:56;;;;;;;1.70;1.00;;;10.90;99.90;;;;;;4994728;28;20440;-47
2024/03/24 08:37:22;;;;;;;3.00;1.40;;;10.90;99.90;;;;;;4992341;28;20534;-47
2024/03/24 08:39:49;;;;;;;2.50;1.37;;;10.90;99.90;;;;;;4988775;28;20460;-47
2024/03/24 08:42:17;;;;;;;2.70;1.10;;;10.90;99.90;;;;;;4989382;28;20635;-47
2024/03/24 08:44:44;;;;;;;2.30;1.30;;;11.00;99.90;;;;;;4992260;28;20467;-47
2024/03/24 08:47:11;;;;;;;2.20;1.20;;;10.90;99.90;;;;;;4990049;28;20443;-47
2024/03/24 08:49:39;;;;;;;4.40;2.10;;;10.90;99.90;;;;;;5002497;28;20476;-47
2024/03/24 08:52:06;;;;;;;2.00;1.20;;;10.90;99.90;;;;;;4993107;28;20444;-47
2024/03/24 08:54:33;;;;;;;3.03;1.67;;;10.90;99.90;;;;;;4989968;28;20535;-47
2024/03/24 08:56:59;;;;;;;2.63;1.33;;;10.90;99.90;;;;;;4977741;28;20502;-47
2024/03/24 08:59:28;;;;;;;2.47;1.30;;;10.90;99.90;;;;;;4988685;28;20475;-48
2024/03/24 09:01:54;;;;;;;1.60;1.10;;;10.90;99.90;;;;;;4991241;28;21353;-47
2024/03/24 09:04:22;;;;;;;2.53;1.00;;;10.90;99.90;;;;;;4991714;28;21842;-47
2024/03/24 09:06:48;;;;;;;1.77;1.10;;;10.90;99.90;;;;;;4987473;28;20990;-47
2024/03/24 09:09:16;;;;;;;1.80;1.10;;;10.90;99.90;;;;;;4997481;28;20843;-47
2024/03/24 09:11:43;;;;;;;2.27;1.10;;;10.90;99.90;;;;;;4999315;28;20445;-47
2024/03/24 09:14:11;;;;;;;3.77;1.40;;;10.90;99.90;;;;;;5000730;28;20484;-47
2024/03/24 09:16:38;;;;;;;2.00;0.90;;;10.90;99.90;;;;;;4998274;28;20518;-48
2024/03/24 09:19:06;;;;;;;2.33;1.30;;;10.90;99.90;;;;;;5003039;28;20461;-46
2024/03/24 09:21:32;;;;;;;1.80;1.10;;;10.90;99.90;;;;;;4997764;28;20443;-47
2024/03/24 09:23:59;;;;;;;3.35;1.25;;;10.90;99.90;;;;;;4995470;28;20526;-49
2024/03/24 09:26:26;;;;;;;3.33;1.30;;;10.90;99.90;;;;;;4986322;28;20208;-50
2024/03/24 09:28:53;;;;;;;3.60;1.33;;;10.90;99.90;;;;;;4992101;28;22602;-50
2024/03/24 09:31:19;;;;;;;1.60;1.30;;;10.90;99.90;;;;;;4983018;28;20450;-47
2024/03/24 09:33:48;;;;;;;1.77;1.20;;;10.90;99.90;;;;;;4990734;28;20444;-47
2024/03/24 09:36:16;;;;;;;3.37;1.40;;;10.90;99.90;;;;;;4970730;28;20452;-47
2024/03/24 09:38:44;;;;;;;3.33;1.67;;;10.90;99.90;;;;;;4991210;28;20549;-51
2024/03/24 09:41:10;;;;;;;2.33;1.47;;;10.90;99.90;;;;;;4984336;28;20443;-51
2024/03/24 09:43:38;;;;;;;3.30;1.40;;;11.00;99.90;;;;;;4988942;28;20540;-49
2024/03/24 09:46:04;;;;;;;2.10;1.20;;;10.90;99.90;;;;;;4987932;28;20526;-47
2024/03/24 09:48:33;;;;;;;4.93;1.60;;;10.90;99.90;;;;;;4990988;28;20479;-50
2024/03/24 09:51:05;;;;;;;1.70;1.30;;;10.90;99.90;;;;;;4987643;28;20456;-48
2024/03/24 09:53:35;;;;;;;2.73;1.27;;;11.00;99.90;;;;;;4991753;28;20458;-50
2024/03/24 09:56:04;;;;;;;2.30;1.10;;;10.90;99.90;;;;;;4997313;28;20440;-47
2024/03/24 09:58:32;;;;;;;5.43;1.67;;;10.90;99.90;;;;;;4988751;28;20515;-49
2024/03/24 10:00:58;;;;;;;2.63;1.47;;;10.90;99.90;;;;;;4968459;28;20444;-47
2024/03/24 10:03:26;;;;;;;2.47;1.20;;;11.00;99.90;;;;;;4992442;28;20838;-49
2024/03/24 10:05:52;;;;;;;4.50;1.40;;;10.90;99.90;;;;;;5000146;28;20824;-47
2024/03/24 10:08:21;;;;;;;2.53;1.10;;;10.90;99.90;;;;;;4990193;28;20493;-47
2024/03/24 10:10:47;;;;;;;3.23;1.60;;;10.90;99.90;;;;;;4993742;28;20448;-47
2024/03/24 10:13:15;;;;;;;3.00;1.57;;;10.90;99.90;;;;;;4986375;28;20469;-48
2024/03/24 10:15:41;;;;;;;3.47;1.37;;;10.90;99.90;;;;;;4990223;28;20438;-47
2024/03/24 10:18:10;;;;;;;2.17;1.27;;;10.90;99.90;;;;;;4970464;28;20477;-48
2024/03/24 10:20:38;;;;;;;3.87;1.40;;;10.90;99.90;;;;;;4986888;28;20449;-47
2024/03/24 10:23:05;;;;;;;4.23;1.73;;;10.90;99.90;;;;;;4992144;28;20445;-49
2024/03/24 10:25:33;;;;;;;2.57;1.60;;;10.90;99.90;;;;;;4995733;28;20447;-50
2024/03/24 10:28:01;;;;;;;2.50;1.43;;;10.90;99.90;;;;;;4987021;28;20502;-47
2024/03/24 10:30:27;;;;;;;2.80;1.30;;;10.90;99.90;;;;;;4987916;28;20447;-48
2024/03/24 10:32:55;;;;;;;2.80;1.63;;;10.90;99.90;;;;;;4992267;28;21001;-47
2024/03/24 10:35:21;;;;;;;2.20;1.30;;;10.90;99.90;;;;;;4988678;28;20804;-49
2024/03/24 10:37:48;;;;;;;2.37;1.20;;;10.90;99.90;;;;;;4988787;28;20448;-46
2024/03/24 10:40:16;;;;;;;2.93;1.50;;;10.90;99.90;;;;;;4987392;28;20524;-46
2024/03/24 10:42:52;;;;;;;3.13;1.43;;;10.90;99.90;;;;;;4988283;28;20483;-48
2024/03/24 10:45:23;;;;;;;3.00;1.90;;;10.90;99.90;;;;;;4991400;28;21130;-48
2024/03/24 10:47:54;;;;;;;3.00;1.77;;;10.90;99.90;;;;;;4989899;28;20451;-46
2024/03/24 10:50:21;;;;;;;2.90;1.40;;;10.90;99.90;;;;;;4988608;28;20430;-47
2024/03/24 10:52:54;;;;;;;2.67;1.70;;;10.90;99.90;;;;;;4989168;28;20724;-47
2024/03/24 10:55:22;;;;;;;2.83;1.40;;;10.90;99.90;;;;;;4983557;28;20908;-48
2024/03/24 10:57:51;;;;;;;4.00;1.90;;;10.90;99.90;;;;;;4991834;28;20469;-48
2024/03/24 11:00:18;;;;;;;2.40;1.23;;;10.90;99.90;;;;;;4993754;28;20438;-48
2024/03/24 11:02:46;;;;;;;2.00;1.57;;;10.90;99.90;;;;;;4992653;28;20525;-48
2024/03/24 11:05:13;;;;;;;2.90;1.53;;;10.90;99.90;;;;;;5000233;28;20436;-48
2024/03/24 11:07:40;;;;;;;3.20;1.73;;;10.90;99.90;;;;;;4995697;28;20509;-48
2024/03/24 11:10:07;;;;;;;3.60;1.50;;;10.90;99.90;;;;;;4991715;28;20474;-48
2024/03/24 11:12:37;;;;;;;3.10;1.33;;;10.90;99.90;;;;;;4987826;28;20476;-48
2024/03/24 11:15:08;;;;;;;1.80;1.30;;;10.90;99.90;;;;;;4991656;28;20856;-48
2024/03/24 11:17:36;;;;;;;1.97;1.50;;;10.90;99.90;;;;;;4994008;28;20447;-48
2024/03/24 11:20:05;;;;;;;2.43;1.50;;;10.90;99.90;;;;;;5000069;28;20433;-48
2024/03/24 11:22:36;;;;;;;3.70;1.63;;;10.90;99.90;;;;;;4983356;28;21733;-48
2024/03/24 11:25:03;;;;;;;1.77;1.37;;;10.90;99.90;;;;;;4995303;28;20513;-49
2024/03/24 11:27:30;;;;;;;3.00;1.73;;;10.90;99.90;;;;;;4994815;28;20536;-48
2024/03/24 11:29:58;;;;;;;5.20;1.77;;;10.90;99.90;;;;;;4974831;28;20475;-48
2024/03/24 11:32:51;;;;;;;4.80;1.70;;;10.90;99.90;;;;;;4993726;28;20443;-49
2024/03/24 11:35:24;;;;;;;2.17;1.00;;;10.90;99.90;;;;;;4979958;28;20793;-48
2024/03/24 11:37:53;;;;;;;2.20;1.50;;;10.90;99.90;;;;;;4997512;28;20536;-48
2024/03/24 11:40:21;;;;;;;2.27;1.63;;;10.90;99.90;;;;;;5005193;28;20499;-48
2024/03/24 11:42:52;;;;;;;3.60;1.60;;;10.90;99.90;;;;;;4989387;28;20944;-47
2024/03/24 11:45:26;;;;;;;3.63;1.80;;;10.90;99.90;;;;;;4994250;28;20669;-48
2024/03/24 11:48:28;;;;;;;2.43;1.60;;;10.90;99.90;;;;;;4993889;28;20658;-47
2024/03/24 11:50:55;;;;;;;5.00;1.50;;;10.90;99.90;;;;;;4989586;28;20459;-48
2024/03/24 11:53:22;;;;;;;3.60;1.50;;;10.90;99.90;;;;;;4991424;28;20444;-46
2024/03/24 11:55:50;;;;;;;4.07;1.97;;;10.90;99.90;;;;;;4989065;28;20451;-48
2024/03/24 11:58:18;;;;;;;2.73;1.40;;;10.90;99.90;;;;;;4988391;28;20461;-51
2024/03/24 12:00:48;;;;;;;2.97;2.13;;;10.90;99.90;;;;;;4992875;28;21497;-49
2024/03/24 12:03:17;;;;;;;2.20;1.57;;;10.90;99.90;;;;;;4992367;28;20442;-50
2024/03/24 12:05:44;;;;;;;4.00;2.00;;;10.90;99.90;;;;;;4990011;28;20529;-49
2024/03/24 12:08:12;;;;;;;3.73;1.83;;;10.90;99.90;;;;;;4985049;28;20471;-51
2024/03/24 12:10:39;;;;;;;4.67;1.57;;;10.90;99.90;;;;;;4991394;28;20459;-51
2024/03/24 12:13:06;;;;;;;5.33;2.57;;;10.90;99.90;;;;;;4984858;28;20522;-49
2024/03/24 12:15:32;;;;;;;2.10;1.80;;;10.90;99.90;;;;;;4992032;28;20454;-47
2024/03/24 12:18:07;;;;;;;3.00;1.97;;;10.90;99.90;;;;;;4992308;28;20527;-48
2024/03/24 12:20:36;;;;;;;3.67;2.30;;;10.90;99.90;;;;;;5003174;28;20466;-49
2024/03/24 12:23:04;;;;;;;2.63;1.57;;;10.90;99.90;;;;;;4995919;28;20851;-48
2024/03/24 12:25:30;;;;;;;3.90;1.40;;;10.90;99.90;;;;;;5003126;28;20442;-47
2024/03/24 12:27:58;;;;;;;2.90;1.73;;;10.90;99.90;;;;;;5012495;28;20480;-47
2024/03/24 12:30:26;;;;;;;3.77;1.97;;;10.90;99.90;;;;;;5006264;28;20457;-48
2024/03/24 12:32:56;;;;;;;2.50;1.60;;;10.90;99.90;;;;;;4991293;28;20499;-48
2024/03/24 12:35:24;;;;;;;2.63;1.47;;;10.90;99.90;;;;;;4997530;28;20809;-47
2024/03/24 12:37:53;;;;;;;3.73;1.60;;;10.90;99.90;;;;;;5002206;28;20474;-47
2024/03/24 12:40:20;;;;;;;3.70;2.07;;;10.90;99.90;;;;;;5002214;28;20445;-48
2024/03/24 12:42:48;;;;;;;3.83;1.37;;;10.90;99.90;;;;;;4987833;28;20453;-47
2024/03/24 12:45:15;;;;;;;3.47;1.73;;;10.90;99.90;;;;;;5024981;28;20493;-48
2024/03/24 12:47:44;;;;;;;3.17;1.80;;;10.90;99.90;;;;;;5007408;28;20473;-49
2024/03/24 12:50:27;;;;;;;3.33;1.63;;;10.90;99.90;;;;;;4995554;28;20483;-48